Accueil
METAR-TAF:

METAR-TAF

Aéroports :

Lanvéoc, France

Base aérienne Lanvéoc-Poulmic

latitude: 48-17N, longitude: 004-26W, altitude: 87 m

Observation

Le bulletin a été fait il y a 32 minutes, à 02:00 UTC
Vent 18 kt de ouest
Température 10°C
Humidité 57%
Pression 1006 hPa
Visibilité 10 km ou plus

METAR: LFRL 010200Z AUTO 27018KT 9999 FEW033/// SCT039/// BKN054/// 10/02 Q1006

Heure: 04:32 (02:32 UTC)


TAF: absent

Observations et prévisions météorologiques de plus de 4000 aéroports (messages METAR et TAF).

Les stations disponibles sont représentées par des disques jaunes et rouges sur la carte.

Passer la souris dessus pour voir le nom de la station.

Cliquer dessus pour voir les observations et prévisions météorologiques.

Pour changer de carte: cliquez sur les boutons verts avec une croix noire pour zoomer, sur le bouton vert avec un tiret pour effectuer un zoom arrière, ou sur les flèches vertes pour les cartes adjacentes.


METAR-TAF: